Darstellungsparameter: Aktuell verwendete Einstellungen:
Skalierung der Graphiken ... ?
xyx+y,   Skalierungsfaktor:      Skalierung: Modus: x, Faktor: 1
Darstellungszeitraum ... ?
Vom - - bis: - -   Zeitraum: 02.12.2017 - 02.12.2017
Min/Max/Avg-Anzeige ... ?
Zeige MMA aktuell
Zeige MMA Monat
Zeige MMA alles
Zeige --A aktuell
Zeige --A Monat
Zeige --A alles
Keine MMA-Anzeige
MMA:
Keine MMA-Graphiken
MMA-Basis: 02.12.2017 - 02.12.2017
Quicknavigation für Darstellung... ?
Tage:      1T, 2T, 3T, 5T -1T -2T -3T -5T +1T +2T +3T +5T
Wochen: 1W, 2W, 3W -1W -2W -3W +1W +2W +3W
Monate: 1M, 3M, 6M -1M -3M -6M +1M +3M +6M
Jahre:    1J, 3J, 5J, 10J -1J -3J -5J -10J +1J +3J +5J +10J
Nutze für die Darstellung ... ?
Originaldaten oder Mittelwerte auf ...
Stundenbasis Tagesbasis Wochenbasis
Monatsbasis Jahresbasis      Datenbasis: Original-Daten
Darstellen als:
Statistik (Auto) Statistik J:M      Darstellung:
Zur Graphik,    zurück zur Übersicht aller Sensoren.
 
Tabellarische Datenbersicht: ?
 
Sensor: Nr:Datum:Temp:Feuchte:Taupunkt:
Aussen-T/F 1 02-12-2017 00:00:00 -0.7 C 96 % -1.26 C
2 02-12-2017 00:05:00 -0.8 C 96 % -1.36 C
3 02-12-2017 00:10:00 -0.8 C 96 % -1.36 C
4 02-12-2017 00:15:00 -0.8 C 96 % -1.36 C
5 02-12-2017 00:20:00 -0.7 C 96 % -1.26 C
6 02-12-2017 00:25:00 -0.6 C 96 % -1.16 C
7 02-12-2017 00:30:00 -0.4 C 96 % -0.96 C
8 02-12-2017 00:35:00 -0.4 C 96 % -0.96 C
9 02-12-2017 00:40:00 -0.3 C 96 % -0.86 C
10 02-12-2017 00:45:00 -0.3 C 96 % -0.86 C
11 02-12-2017 00:50:00 -0.2 C 96 % -0.76 C
12 02-12-2017 00:55:00 -0.2 C 96 % -0.76 C
13 02-12-2017 01:00:00 -0.2 C 96 % -0.76 C
14 02-12-2017 01:05:00 -0.1 C 96 % -0.66 C
15 02-12-2017 01:10:00 -0.1 C 96 % -0.66 C
16 02-12-2017 01:15:00 -0.1 C 96 % -0.66 C
17 02-12-2017 01:20:00 -0.1 C 96 % -0.66 C
18 02-12-2017 01:25:00 -0.1 C 96 % -0.66 C
19 02-12-2017 01:30:00 -0.1 C 96 % -0.66 C
20 02-12-2017 01:35:00 0 C 96 % -0.56 C
21 02-12-2017 01:40:00 0 C 96 % -0.56 C
22 02-12-2017 01:45:00 0.1 C 96 % -0.46 C
23 02-12-2017 01:50:00 0.1 C 96 % -0.46 C
24 02-12-2017 01:55:00 0.1 C 96 % -0.46 C
25 02-12-2017 02:00:00 0.1 C 96 % -0.46 C
Sensor: Nr:Datum:Temp:Feuchte:Taupunkt:
Aussen-T/F 26 02-12-2017 02:05:00 0.2 C 96 % -0.36 C
27 02-12-2017 02:10:00 0.2 C 96 % -0.36 C
28 02-12-2017 02:15:00 0.2 C 96 % -0.36 C
29 02-12-2017 02:20:00 0.2 C 96 % -0.36 C
30 02-12-2017 02:25:00 0.2 C 96 % -0.36 C
31 02-12-2017 02:30:00 0.3 C 96 % -0.26 C
32 02-12-2017 02:35:00 0.3 C 96 % -0.26 C
33 02-12-2017 02:40:00 0.3 C 96 % -0.26 C
34 02-12-2017 02:45:00 0.3 C 96 % -0.26 C
35 02-12-2017 02:50:00 0.3 C 96 % -0.26 C
36 02-12-2017 02:55:00 0.3 C 96 % -0.26 C
37 02-12-2017 03:00:00 0.4 C 96 % -0.16 C
38 02-12-2017 03:05:00 0.4 C 96 % -0.16 C
39 02-12-2017 03:10:00 0.5 C 96 % -0.06 C
40 02-12-2017 03:15:00 0.6 C 97 % 0.18 C
41 02-12-2017 03:20:00 0.6 C 97 % 0.18 C
42 02-12-2017 03:25:00 0.6 C 97 % 0.18 C
43 02-12-2017 03:30:00 0.6 C 97 % 0.18 C
44 02-12-2017 03:35:00 0.7 C 97 % 0.28 C
45 02-12-2017 03:40:00 0.7 C 97 % 0.28 C
46 02-12-2017 03:45:00 0.7 C 97 % 0.28 C
47 02-12-2017 03:50:00 0.7 C 97 % 0.28 C
48 02-12-2017 03:55:00 0.7 C 97 % 0.28 C
49 02-12-2017 04:00:00 0.7 C 96 % 0.14 C
50 02-12-2017 04:05:00 0.7 C 96 % 0.14 C
Sensor: Nr:Datum:Temp:Feuchte:Taupunkt:
Aussen-T/F 51 02-12-2017 04:10:00 0.7 C 96 % 0.14 C
52 02-12-2017 04:15:00 0.7 C 96 % 0.14 C
53 02-12-2017 04:20:00 0.7 C 96 % 0.14 C
54 02-12-2017 04:25:00 0.7 C 96 % 0.14 C
55 02-12-2017 04:30:00 0.7 C 96 % 0.14 C
56 02-12-2017 04:35:00 0.7 C 96 % 0.14 C
57 02-12-2017 04:40:00 0.7 C 96 % 0.14 C
58 02-12-2017 04:45:00 0.7 C 96 % 0.14 C
59 02-12-2017 04:50:00 0.7 C 96 % 0.14 C
60 02-12-2017 04:55:00 0.7 C 96 % 0.14 C
61 02-12-2017 05:00:00 0.6 C 96 % 0.04 C
62 02-12-2017 05:05:00 0.6 C 96 % 0.04 C
63 02-12-2017 05:10:00 0.6 C 96 % 0.04 C
64 02-12-2017 05:15:00 0.6 C 96 % 0.04 C
65 02-12-2017 05:20:00 0.6 C 96 % 0.04 C
66 02-12-2017 05:25:00 0.6 C 96 % 0.04 C
67 02-12-2017 05:30:00 0.6 C 96 % 0.04 C
68 02-12-2017 05:35:00 0.6 C 96 % 0.04 C
69 02-12-2017 05:40:00 0.6 C 96 % 0.04 C
70 02-12-2017 05:45:00 0.6 C 96 % 0.04 C
71 02-12-2017 05:50:00 0.6 C 96 % 0.04 C
72 02-12-2017 05:55:00 0.6 C 96 % 0.04 C
73 02-12-2017 06:00:00 0.5 C 96 % -0.06 C
74 02-12-2017 06:05:00 0.5 C 96 % -0.06 C
75 02-12-2017 06:10:00 0.5 C 96 % -0.06 C
Sensor: Nr:Datum:Temp:Feuchte:Taupunkt:
Aussen-T/F 76 02-12-2017 06:15:00 0.5 C 96 % -0.06 C
77 02-12-2017 06:20:00 0.5 C 96 % -0.06 C
78 02-12-2017 06:25:00 0.5 C 96 % -0.06 C
79 02-12-2017 06:30:00 0.5 C 96 % -0.06 C
80 02-12-2017 06:35:00 0.5 C 96 % -0.06 C
81 02-12-2017 06:40:00 0.5 C 96 % -0.06 C
82 02-12-2017 06:45:00 0.5 C 96 % -0.06 C
83 02-12-2017 06:50:00 0.5 C 96 % -0.06 C
84 02-12-2017 06:55:00 0.5 C 96 % -0.06 C
85 02-12-2017 07:00:00 0.5 C 96 % -0.06 C
86 02-12-2017 07:05:00 0.5 C 96 % -0.06 C
87 02-12-2017 07:10:00 0.5 C 96 % -0.06 C
88 02-12-2017 07:15:00 0.5 C 96 % -0.06 C
89 02-12-2017 07:20:00 0.5 C 96 % -0.06 C
90 02-12-2017 07:25:00 0.5 C 96 % -0.06 C
91 02-12-2017 07:30:00 0.5 C 96 % -0.06 C
92 02-12-2017 07:35:00 0.5 C 96 % -0.06 C
93 02-12-2017 07:40:00 0.5 C 96 % -0.06 C
94 02-12-2017 07:45:00 0.4 C 96 % -0.16 C
95 02-12-2017 07:50:00 0.4 C 96 % -0.16 C
96 02-12-2017 07:55:00 0.4 C 96 % -0.16 C
97 02-12-2017 08:00:00 0.4 C 96 % -0.16 C
98 02-12-2017 08:05:00 0.4 C 96 % -0.16 C
99 02-12-2017 08:10:00 0.4 C 96 % -0.16 C
100 02-12-2017 08:15:00 0.4 C 96 % -0.16 C
Sensor: Nr:Datum:Temp:Feuchte:Taupunkt:
Aussen-T/F 101 02-12-2017 08:20:00 0.4 C 96 % -0.16 C
102 02-12-2017 08:25:00 0.4 C 96 % -0.16 C
103 02-12-2017 08:30:00 0.4 C 96 % -0.16 C
104 02-12-2017 08:35:00 0.5 C 96 % -0.06 C
105 02-12-2017 08:40:00 0.5 C 96 % -0.06 C
106 02-12-2017 08:45:00 0.5 C 96 % -0.06 C
107 02-12-2017 08:50:00 0.6 C 96 % 0.04 C
108 02-12-2017 08:55:00 0.6 C 96 % 0.04 C
109 02-12-2017 09:00:00 0.6 C 96 % 0.04 C
110 02-12-2017 09:05:00 0.6 C 96 % 0.04 C
111 02-12-2017 09:10:00 0.6 C 96 % 0.04 C
112 02-12-2017 09:15:00 0.6 C 96 % 0.04 C
113 02-12-2017 09:20:00 0.6 C 96 % 0.04 C
114 02-12-2017 09:25:00 0.6 C 96 % 0.04 C
115 02-12-2017 09:30:00 0.6 C 96 % 0.04 C
116 02-12-2017 09:35:00 0.7 C 96 % 0.14 C
117 02-12-2017 09:40:00 0.7 C 96 % 0.14 C
118 02-12-2017 09:45:00 0.7 C 96 % 0.14 C
119 02-12-2017 09:50:00 0.7 C 96 % 0.14 C
120 02-12-2017 09:55:00 0.8 C 96 % 0.24 C
121 02-12-2017 10:00:00 0.8 C 95 % 0.09 C
122 02-12-2017 10:05:00 0.8 C 95 % 0.09 C
123 02-12-2017 10:10:00 0.8 C 95 % 0.09 C
124 02-12-2017 10:15:00 0.9 C 96 % 0.34 C
125 02-12-2017 10:20:00 0.9 C 95 % 0.19 C
Sensor: Nr:Datum:Temp:Feuchte:Taupunkt:
Aussen-T/F 126 02-12-2017 10:25:00 1 C 95 % 0.29 C
127 02-12-2017 10:30:00 1 C 95 % 0.29 C
128 02-12-2017 10:35:00 1 C 95 % 0.29 C
129 02-12-2017 10:40:00 1.1 C 95 % 0.39 C
130 02-12-2017 10:45:00 1.1 C 95 % 0.39 C
131 02-12-2017 10:50:00 1.1 C 95 % 0.39 C
132 02-12-2017 10:55:00 1.1 C 95 % 0.39 C
133 02-12-2017 11:00:00 1.1 C 95 % 0.39 C
134 02-12-2017 11:05:00 1.2 C 95 % 0.49 C
135 02-12-2017 11:10:00 1.2 C 95 % 0.49 C
136 02-12-2017 11:15:00 1.3 C 95 % 0.59 C
137 02-12-2017 11:20:00 1.3 C 95 % 0.59 C
138 02-12-2017 11:25:00 1.3 C 94 % 0.44 C
139 02-12-2017 11:30:00 1.3 C 94 % 0.44 C
140 02-12-2017 11:35:00 1.3 C 94 % 0.44 C
141 02-12-2017 11:40:00 1.4 C 94 % 0.54 C
142 02-12-2017 11:45:00 1.4 C 94 % 0.54 C
143 02-12-2017 11:50:00 1.5 C 94 % 0.64 C
144 02-12-2017 11:55:00 1.6 C 94 % 0.74 C
145 02-12-2017 12:00:00 1.5 C 94 % 0.64 C
146 02-12-2017 12:05:00 1.5 C 94 % 0.64 C
147 02-12-2017 12:10:00 1.5 C 93 % 0.49 C
148 02-12-2017 12:15:00 1.4 C 93 % 0.4 C
149 02-12-2017 12:20:00 1.4 C 93 % 0.4 C
150 02-12-2017 12:25:00 1.4 C 93 % 0.4 C
Sensor: Nr:Datum:Temp:Feuchte:Taupunkt:
Aussen-T/F 151 02-12-2017 12:30:00 1.4 C 93 % 0.4 C
152 02-12-2017 12:35:00 1.4 C 93 % 0.4 C
153 02-12-2017 12:40:00 1.6 C 93 % 0.59 C
154 02-12-2017 12:45:00 1.6 C 93 % 0.59 C
155 02-12-2017 12:50:00 1.6 C 93 % 0.59 C
156 02-12-2017 12:55:00 1.7 C 93 % 0.69 C
157 02-12-2017 13:00:00 1.7 C 93 % 0.69 C
158 02-12-2017 13:05:00 1.7 C 93 % 0.69 C
159 02-12-2017 13:10:00 1.7 C 93 % 0.69 C
160 02-12-2017 13:15:00 1.7 C 92 % 0.54 C
161 02-12-2017 13:20:00 1.8 C 92 % 0.64 C
162 02-12-2017 13:25:00 1.7 C 92 % 0.54 C
163 02-12-2017 13:30:00 1.8 C 92 % 0.64 C
164 02-12-2017 13:35:00 1.8 C 92 % 0.64 C
165 02-12-2017 13:40:00 1.8 C 92 % 0.64 C
166 02-12-2017 13:45:00 1.8 C 92 % 0.64 C
167 02-12-2017 13:50:00 1.7 C 92 % 0.54 C
168 02-12-2017 13:55:00 1.7 C 92 % 0.54 C
169 02-12-2017 14:00:00 1.7 C 92 % 0.54 C
170 02-12-2017 14:05:00 1.7 C 93 % 0.69 C
171 02-12-2017 14:10:00 1.8 C 93 % 0.79 C
172 02-12-2017 14:15:00 1.8 C 93 % 0.79 C
173 02-12-2017 14:20:00 1.8 C 93 % 0.79 C
174 02-12-2017 14:25:00 1.8 C 93 % 0.79 C
175 02-12-2017 14:30:00 1.8 C 93 % 0.79 C
Sensor: Nr:Datum:Temp:Feuchte:Taupunkt:
Aussen-T/F 176 02-12-2017 14:35:00 1.8 C 93 % 0.79 C
177 02-12-2017 14:40:00 1.9 C 93 % 0.89 C
178 02-12-2017 14:45:00 1.9 C 93 % 0.89 C
179 02-12-2017 14:50:00 1.9 C 93 % 0.89 C
180 02-12-2017 14:55:00 1.9 C 93 % 0.89 C
181 02-12-2017 15:00:00 1.9 C 93 % 0.89 C
182 02-12-2017 15:05:00 1.9 C 93 % 0.89 C
183 02-12-2017 15:10:00 1.9 C 93 % 0.89 C
184 02-12-2017 15:15:00 1.9 C 92 % 0.74 C
185 02-12-2017 15:20:00 1.9 C 93 % 0.89 C
186 02-12-2017 15:25:00 1.9 C 93 % 0.89 C
187 02-12-2017 15:30:00 1.9 C 93 % 0.89 C
188 02-12-2017 15:35:00 1.9 C 93 % 0.89 C
189 02-12-2017 15:40:00 1.9 C 93 % 0.89 C
190 02-12-2017 15:45:00 1.9 C 93 % 0.89 C
191 02-12-2017 15:50:00 1.9 C 93 % 0.89 C
192 02-12-2017 15:55:00 1.9 C 92 % 0.74 C
193 02-12-2017 16:00:00 1.8 C 93 % 0.79 C
194 02-12-2017 16:05:00 1.8 C 92 % 0.64 C
195 02-12-2017 16:10:00 1.8 C 92 % 0.64 C
196 02-12-2017 16:15:00 1.8 C 92 % 0.64 C
197 02-12-2017 16:20:00 1.8 C 92 % 0.64 C
198 02-12-2017 16:25:00 1.8 C 92 % 0.64 C
199 02-12-2017 16:30:00 1.8 C 92 % 0.64 C
200 02-12-2017 16:35:00 1.7 C 92 % 0.54 C
Sensor: Nr:Datum:Temp:Feuchte:Taupunkt:
Aussen-T/F 201 02-12-2017 16:40:00 1.8 C 92 % 0.64 C
202 02-12-2017 16:45:00 1.7 C 92 % 0.54 C
203 02-12-2017 16:50:00 1.7 C 92 % 0.54 C
204 02-12-2017 16:55:00 1.7 C 92 % 0.54 C
205 02-12-2017 17:00:00 1.7 C 92 % 0.54 C
206 02-12-2017 17:05:00 1.7 C 92 % 0.54 C
207 02-12-2017 17:10:00 1.7 C 93 % 0.69 C
208 02-12-2017 17:15:00 1.7 C 93 % 0.69 C
209 02-12-2017 17:20:00 1.7 C 93 % 0.69 C
210 02-12-2017 17:25:00 1.7 C 93 % 0.69 C
211 02-12-2017 17:30:00 1.7 C 93 % 0.69 C
212 02-12-2017 17:35:00 1.7 C 93 % 0.69 C
213 02-12-2017 17:40:00 1.7 C 93 % 0.69 C
214 02-12-2017 17:45:00 1.6 C 93 % 0.59 C
215 02-12-2017 17:50:00 1.6 C 92 % 0.44 C
216 02-12-2017 17:55:00 1.5 C 92 % 0.35 C
217 02-12-2017 18:00:00 1.5 C 92 % 0.35 C
218 02-12-2017 18:05:00 1.5 C 92 % 0.35 C
219 02-12-2017 18:10:00 1.6 C 92 % 0.44 C
220 02-12-2017 18:15:00 1.5 C 92 % 0.35 C
221 02-12-2017 18:20:00 1.5 C 92 % 0.35 C
222 02-12-2017 18:25:00 1.5 C 92 % 0.35 C
223 02-12-2017 18:30:00 1.5 C 92 % 0.35 C
224 02-12-2017 18:35:00 1.4 C 92 % 0.25 C
225 02-12-2017 18:40:00 1.4 C 92 % 0.25 C
Sensor: Nr:Datum:Temp:Feuchte:Taupunkt:
Aussen-T/F 226 02-12-2017 18:45:00 1.4 C 92 % 0.25 C
227 02-12-2017 18:50:00 1.4 C 92 % 0.25 C
228 02-12-2017 18:55:00 1.4 C 92 % 0.25 C
229 02-12-2017 19:00:00 1.4 C 92 % 0.25 C
230 02-12-2017 19:05:00 1.4 C 92 % 0.25 C
231 02-12-2017 19:10:00 1.3 C 92 % 0.15 C
232 02-12-2017 19:15:00 1.3 C 92 % 0.15 C
233 02-12-2017 19:20:00 1.3 C 92 % 0.15 C
234 02-12-2017 19:25:00 1.3 C 92 % 0.15 C
235 02-12-2017 19:30:00 1.3 C 92 % 0.15 C
236 02-12-2017 19:35:00 1.3 C 92 % 0.15 C
237 02-12-2017 19:40:00 1.3 C 92 % 0.15 C
238 02-12-2017 19:45:00 1.3 C 92 % 0.15 C
239 02-12-2017 19:50:00 1.3 C 92 % 0.15 C
240 02-12-2017 19:55:00 1.3 C 92 % 0.15 C
241 02-12-2017 20:00:00 1.3 C 92 % 0.15 C
242 02-12-2017 20:05:00 1.3 C 93 % 0.3 C
243 02-12-2017 20:10:00 1.3 C 93 % 0.3 C
244 02-12-2017 20:15:00 1.3 C 93 % 0.3 C
245 02-12-2017 20:20:00 1.3 C 93 % 0.3 C
246 02-12-2017 20:25:00 1.3 C 93 % 0.3 C
247 02-12-2017 20:30:00 1.2 C 93 % 0.2 C
248 02-12-2017 20:35:00 1.2 C 92 % 0.05 C
249 02-12-2017 20:40:00 1.2 C 92 % 0.05 C
250 02-12-2017 20:45:00 1.2 C 92 % 0.05 C
Sensor: Nr:Datum:Temp:Feuchte:Taupunkt:
Aussen-T/F 251 02-12-2017 20:50:00 1.2 C 92 % 0.05 C
252 02-12-2017 20:55:00 1.2 C 93 % 0.2 C
253 02-12-2017 21:00:00 1.2 C 93 % 0.2 C
254 02-12-2017 21:05:00 1.2 C 92 % 0.05 C
255 02-12-2017 21:10:00 1.2 C 93 % 0.2 C
256 02-12-2017 21:15:00 1.2 C 93 % 0.2 C
257 02-12-2017 21:20:00 1.2 C 93 % 0.2 C
258 02-12-2017 21:25:00 1.2 C 93 % 0.2 C
259 02-12-2017 21:30:00 1.2 C 93 % 0.2 C
260 02-12-2017 21:35:00 1.2 C 93 % 0.2 C
261 02-12-2017 21:40:00 1.2 C 93 % 0.2 C
262 02-12-2017 21:45:00 1.2 C 93 % 0.2 C
263 02-12-2017 21:50:00 1.2 C 93 % 0.2 C
264 02-12-2017 21:55:00 1.2 C 93 % 0.2 C
265 02-12-2017 22:00:00 1.2 C 93 % 0.2 C
266 02-12-2017 22:05:00 1.1 C 93 % 0.1 C
267 02-12-2017 22:10:00 1.1 C 93 % 0.1 C
268 02-12-2017 22:15:00 1.1 C 93 % 0.1 C
269 02-12-2017 22:20:00 1.1 C 93 % 0.1 C
270 02-12-2017 22:25:00 1.1 C 93 % 0.1 C
271 02-12-2017 22:30:00 1 C 93 % 0 C
272 02-12-2017 22:35:00 1 C 93 % 0 C
273 02-12-2017 22:40:00 0.9 C 93 % -0.1 C
274 02-12-2017 22:45:00 0.9 C 93 % -0.1 C
275 02-12-2017 22:50:00 0.9 C 93 % -0.1 C
Sensor: Nr:Datum:Temp:Feuchte:Taupunkt:
Aussen-T/F 276 02-12-2017 22:55:00 0.9 C 93 % -0.1 C
277 02-12-2017 23:00:00 0.9 C 93 % -0.1 C
278 02-12-2017 23:05:00 0.9 C 93 % -0.1 C
279 02-12-2017 23:10:00 0.9 C 93 % -0.1 C
280 02-12-2017 23:15:00 0.9 C 93 % -0.1 C
281 02-12-2017 23:20:00 0.8 C 93 % -0.2 C
282 02-12-2017 23:25:00 0.8 C 93 % -0.2 C
283 02-12-2017 23:30:00 0.8 C 93 % -0.2 C
284 02-12-2017 23:35:00 0.8 C 93 % -0.2 C
285 02-12-2017 23:40:00 0.8 C 93 % -0.2 C
286 02-12-2017 23:45:00 0.8 C 93 % -0.2 C
287 02-12-2017 23:50:00 0.7 C 93 % -0.3 C
288 02-12-2017 23:55:00 0.7 C 93 % -0.3 C

Legende:
   Min
   Max


Maximal/Minimal-Werte vom 02.12.2017 - 02.12.2017

Sensor Min Max Avg
Temp
(Aussen-T/F)
-0.8 °C
02-12-2017  00:05:00
1.9 °C
02-12-2017  14:40:00
0.98 °C
Feuchte
(Aussen-T/F)
92 %
02-12-2017  13:15:00
97 %
02-12-2017  03:15:00
94.24 %
Taupunkt
(Aussen-T/F)
-1.36 C
02-12-2017  00:05:00
0.89 C
02-12-2017  14:40:00
0.15 C

Die Daten stammen von einer Davis Vantage Pro 2 Wetter-Station und werden unter Linux mit der Software wview2wettercgi und aufbereitet. Alle Angaben erfolgen ohne Gewähr für ihre Vollständigkeit oder Richtigkeit.
Kontakt: Rainer Krienke krienke@uni-koblenz.de . Meine Webseiten an der Uni Koblenz oder privat.
Version: $Revision: 0.78 $